sensor_id;sensor_type;location;lat;lon;timestamp;temperature;humidity
15991;DHT22;8100;50.994;4.538;2023-02-15T00:01:33;0.80;99.90
15991;DHT22;8100;50.994;4.538;2023-02-15T00:04:23;0.80;99.90
15991;DHT22;8100;50.994;4.538;2023-02-15T00:07:30;0.80;98.20
15991;DHT22;8100;50.994;4.538;2023-02-15T00:10:18;0.70;97.90
15991;DHT22;8100;50.994;4.538;2023-02-15T00:13:05;0.80;99.90
15991;DHT22;8100;50.994;4.538;2023-02-15T00:15:52;0.60;99.90
15991;DHT22;8100;50.994;4.538;2023-02-15T00:18:39;0.70;99.90
15991;DHT22;8100;50.994;4.538;2023-02-15T00:21:29;0.80;99.90
15991;DHT22;8100;50.994;4.538;2023-02-15T00:24:17;0.80;99.90
15991;DHT22;8100;50.994;4.538;2023-02-15T00:27:05;0.70;99.90
15991;DHT22;8100;50.994;4.538;2023-02-15T00:29:54;0.60;99.90
15991;DHT22;8100;50.994;4.538;2023-02-15T00:32:42;0.50;99.90
15991;DHT22;8100;50.994;4.538;2023-02-15T00:35:29;0.50;99.90
15991;DHT22;8100;50.994;4.538;2023-02-15T00:38:17;0.50;99.90
15991;DHT22;8100;50.994;4.538;2023-02-15T00:41:06;0.60;99.90
15991;DHT22;8100;50.994;4.538;2023-02-15T00:43:53;0.30;99.90
15991;DHT22;8100;50.994;4.538;2023-02-15T00:46:40;0.40;99.90
15991;DHT22;8100;50.994;4.538;2023-02-15T00:49:27;0.20;99.90
15991;DHT22;8100;50.994;4.538;2023-02-15T00:52:15;0.30;99.90
15991;DHT22;8100;50.994;4.538;2023-02-15T00:55:04;0.20;99.90
15991;DHT22;8100;50.994;4.538;2023-02-15T00:57:51;0.30;99.90
15991;DHT22;8100;50.994;4.538;2023-02-15T01:00:38;0.30;99.90
15991;DHT22;8100;50.994;4.538;2023-02-15T01:03:27;0.20;99.90
15991;DHT22;8100;50.994;4.538;2023-02-15T01:06:14;0.20;99.90
15991;DHT22;8100;50.994;4.538;2023-02-15T01:09:02;0.10;99.90
15991;DHT22;8100;50.994;4.538;2023-02-15T01:11:51;0.20;99.90
15991;DHT22;8100;50.994;4.538;2023-02-15T01:14:38;0.20;99.90
15991;DHT22;8100;50.994;4.538;2023-02-15T01:17:25;0.10;99.90
15991;DHT22;8100;50.994;4.538;2023-02-15T01:20:13;0.00;99.90
15991;DHT22;8100;50.994;4.538;2023-02-15T01:23:00;0.00;99.90
15991;DHT22;8100;50.994;4.538;2023-02-15T01:25:48;0.00;99.90
15991;DHT22;8100;50.994;4.538;2023-02-15T01:28:37;0.00;99.90
15991;DHT22;8100;50.994;4.538;2023-02-15T01:31:24;-0.20;99.90
15991;DHT22;8100;50.994;4.538;2023-02-15T01:34:11;0.00;99.90
15991;DHT22;8100;50.994;4.538;2023-02-15T01:36:58;-0.20;99.90
15991;DHT22;8100;50.994;4.538;2023-02-15T01:39:45;-0.10;99.90
15991;DHT22;8100;50.994;4.538;2023-02-15T01:42:33;-0.30;99.90
15991;DHT22;8100;50.994;4.538;2023-02-15T01:45:25;-0.10;99.90
15991;DHT22;8100;50.994;4.538;2023-02-15T01:48:19;-0.20;99.90
15991;DHT22;8100;50.994;4.538;2023-02-15T01:51:08;-0.10;99.90
15991;DHT22;8100;50.994;4.538;2023-02-15T01:53:58;-0.30;99.90
15991;DHT22;8100;50.994;4.538;2023-02-15T01:56:48;-0.40;99.90
15991;DHT22;8100;50.994;4.538;2023-02-15T01:59:35;-0.40;99.90
15991;DHT22;8100;50.994;4.538;2023-02-15T02:02:27;-0.40;99.90
15991;DHT22;8100;50.994;4.538;2023-02-15T02:05:14;-0.40;99.90
15991;DHT22;8100;50.994;4.538;2023-02-15T02:08:02;-0.40;99.90
15991;DHT22;8100;50.994;4.538;2023-02-15T02:10:49;-0.30;99.90
15991;DHT22;8100;50.994;4.538;2023-02-15T02:13:37;-0.30;99.90
15991;DHT22;8100;50.994;4.538;2023-02-15T02:16:28;-0.40;99.90
15991;DHT22;8100;50.994;4.538;2023-02-15T02:20:08;-0.50;99.90
15991;DHT22;8100;50.994;4.538;2023-02-15T02:26:45;-0.60;99.90
15991;DHT22;8100;50.994;4.538;2023-02-15T02:33:19;-0.70;99.90
15991;DHT22;8100;50.994;4.538;2023-02-15T02:36:15;-0.50;99.90
15991;DHT22;8100;50.994;4.538;2023-02-15T02:39:12;-0.70;99.90
15991;DHT22;8100;50.994;4.538;2023-02-15T02:42:04;-0.60;99.90
15991;DHT22;8100;50.994;4.538;2023-02-15T02:44:56;-0.60;99.90
15991;DHT22;8100;50.994;4.538;2023-02-15T02:47:47;-0.50;99.90
15991;DHT22;8100;50.994;4.538;2023-02-15T02:50:39;-0.60;99.90
15991;DHT22;8100;50.994;4.538;2023-02-15T02:53:29;-0.80;99.90
15991;DHT22;8100;50.994;4.538;2023-02-15T02:56:21;-0.60;99.90
15991;DHT22;8100;50.994;4.538;2023-02-15T02:59:12;-0.70;99.90
15991;DHT22;8100;50.994;4.538;2023-02-15T03:02:05;-0.80;99.90
15991;DHT22;8100;50.994;4.538;2023-02-15T03:05:01;-0.70;99.90
15991;DHT22;8100;50.994;4.538;2023-02-15T03:07:52;-0.90;99.90
15991;DHT22;8100;50.994;4.538;2023-02-15T03:10:40;-0.90;99.90
15991;DHT22;8100;50.994;4.538;2023-02-15T03:13:28;-1.00;99.90
15991;DHT22;8100;50.994;4.538;2023-02-15T03:16:17;-0.80;99.90
15991;DHT22;8100;50.994;4.538;2023-02-15T03:19:16;-0.80;99.90
15991;DHT22;8100;50.994;4.538;2023-02-15T03:22:07;-1.00;99.90
15991;DHT22;8100;50.994;4.538;2023-02-15T03:25:00;-1.00;99.90
15991;DHT22;8100;50.994;4.538;2023-02-15T03:27:51;-0.80;99.90
15991;DHT22;8100;50.994;4.538;2023-02-15T03:30:40;-0.80;99.90
15991;DHT22;8100;50.994;4.538;2023-02-15T03:33:29;-1.00;99.90
15991;DHT22;8100;50.994;4.538;2023-02-15T03:36:20;-0.90;99.90
15991;DHT22;8100;50.994;4.538;2023-02-15T03:39:12;-1.10;99.90
15991;DHT22;8100;50.994;4.538;2023-02-15T03:42:08;-0.90;99.90
15991;DHT22;8100;50.994;4.538;2023-02-15T03:44:58;-0.90;99.90
15991;DHT22;8100;50.994;4.538;2023-02-15T03:47:48;-0.90;99.90
15991;DHT22;8100;50.994;4.538;2023-02-15T03:50:37;-1.20;99.90
15991;DHT22;8100;50.994;4.538;2023-02-15T03:53:43;-1.10;99.90
15991;DHT22;8100;50.994;4.538;2023-02-15T03:56:33;-1.20;99.90
15991;DHT22;8100;50.994;4.538;2023-02-15T03:59:22;-1.00;99.90
15991;DHT22;8100;50.994;4.538;2023-02-15T04:02:31;-1.10;99.90
15991;DHT22;8100;50.994;4.538;2023-02-15T04:05:22;-1.30;99.90
15991;DHT22;8100;50.994;4.538;2023-02-15T04:08:10;-1.00;99.90
15991;DHT22;8100;50.994;4.538;2023-02-15T04:10:57;-1.00;99.90
15991;DHT22;8100;50.994;4.538;2023-02-15T04:13:43;-1.10;99.90
15991;DHT22;8100;50.994;4.538;2023-02-15T04:16:32;-1.20;99.90
15991;DHT22;8100;50.994;4.538;2023-02-15T04:19:19;-1.20;99.90
15991;DHT22;8100;50.994;4.538;2023-02-15T04:22:23;-1.20;99.90
15991;DHT22;8100;50.994;4.538;2023-02-15T04:25:28;-1.20;99.90
15991;DHT22;8100;50.994;4.538;2023-02-15T04:28:15;-1.50;99.90
15991;DHT22;8100;50.994;4.538;2023-02-15T04:31:02;-1.50;99.90
15991;DHT22;8100;50.994;4.538;2023-02-15T04:33:51;-1.50;99.90
15991;DHT22;8100;50.994;4.538;2023-02-15T04:36:39;-1.30;99.90
15991;DHT22;8100;50.994;4.538;2023-02-15T04:39:26;-1.30;99.90
15991;DHT22;8100;50.994;4.538;2023-02-15T04:42:13;-1.30;99.90
15991;DHT22;8100;50.994;4.538;2023-02-15T04:45:01;-1.50;99.90
15991;DHT22;8100;50.994;4.538;2023-02-15T04:47:48;-1.50;99.90
15991;DHT22;8100;50.994;4.538;2023-02-15T04:50:37;-1.30;99.90
15991;DHT22;8100;50.994;4.538;2023-02-15T04:53:24;-1.70;99.90
15991;DHT22;8100;50.994;4.538;2023-02-15T04:56:11;-1.50;99.90
15991;DHT22;8100;50.994;4.538;2023-02-15T04:58:58;-1.50;99.90
15991;DHT22;8100;50.994;4.538;2023-02-15T05:01:45;-1.70;99.90
15991;DHT22;8100;50.994;4.538;2023-02-15T05:04:33;-1.50;99.90
15991;DHT22;8100;50.994;4.538;2023-02-15T05:07:21;-1.50;99.90
15991;DHT22;8100;50.994;4.538;2023-02-15T05:10:09;-1.40;99.90
15991;DHT22;8100;50.994;4.538;2023-02-15T05:12:56;-1.50;99.90
15991;DHT22;8100;50.994;4.538;2023-02-15T05:15:47;-1.50;99.90
15991;DHT22;8100;50.994;4.538;2023-02-15T05:18:34;-1.50;99.90
15991;DHT22;8100;50.994;4.538;2023-02-15T05:21:21;-1.50;99.90
15991;DHT22;8100;50.994;4.538;2023-02-15T05:24:10;-1.70;99.90
15991;DHT22;8100;50.994;4.538;2023-02-15T05:27:12;-1.50;99.90
15991;DHT22;8100;50.994;4.538;2023-02-15T05:30:17;-1.70;99.90
15991;DHT22;8100;50.994;4.538;2023-02-15T05:33:04;-1.70;99.90
15991;DHT22;8100;50.994;4.538;2023-02-15T05:35:51;-1.60;99.90
15991;DHT22;8100;50.994;4.538;2023-02-15T05:38:39;-1.80;99.90
15991;DHT22;8100;50.994;4.538;2023-02-15T05:41:27;-1.60;99.90
15991;DHT22;8100;50.994;4.538;2023-02-15T05:44:15;-1.80;99.90
15991;DHT22;8100;50.994;4.538;2023-02-15T05:47:02;-1.60;99.90
15991;DHT22;8100;50.994;4.538;2023-02-15T05:49:50;-1.80;99.90
15991;DHT22;8100;50.994;4.538;2023-02-15T05:52:37;-1.60;99.90
15991;DHT22;8100;50.994;4.538;2023-02-15T05:55:24;-1.60;99.90
15991;DHT22;8100;50.994;4.538;2023-02-15T05:58:13;-1.60;99.90
15991;DHT22;8100;50.994;4.538;2023-02-15T06:01:07;-1.80;99.90
15991;DHT22;8100;50.994;4.538;2023-02-15T06:03:55;-1.50;99.90
15991;DHT22;8100;50.994;4.538;2023-02-15T06:06:42;-1.50;99.90
15991;DHT22;8100;50.994;4.538;2023-02-15T06:09:29;-1.70;99.90
15991;DHT22;8100;50.994;4.538;2023-02-15T06:12:17;-1.70;99.90
15991;DHT22;8100;50.994;4.538;2023-02-15T06:15:06;-1.50;99.90
15991;DHT22;8100;50.994;4.538;2023-02-15T06:17:53;-1.80;99.90
15991;DHT22;8100;50.994;4.538;2023-02-15T06:20:40;-1.90;99.90
15991;DHT22;8100;50.994;4.538;2023-02-15T06:23:28;-1.90;99.90
15991;DHT22;8100;50.994;4.538;2023-02-15T06:26:15;-1.60;99.90
15991;DHT22;8100;50.994;4.538;2023-02-15T06:29:02;-1.70;99.90
15991;DHT22;8100;50.994;4.538;2023-02-15T06:31:51;-2.00;99.90
15991;DHT22;8100;50.994;4.538;2023-02-15T06:34:38;-1.80;99.90
15991;DHT22;8100;50.994;4.538;2023-02-15T06:37:26;-1.80;99.90
15991;DHT22;8100;50.994;4.538;2023-02-15T06:40:13;-1.80;99.90
15991;DHT22;8100;50.994;4.538;2023-02-15T06:43:01;-1.90;99.90
15991;DHT22;8100;50.994;4.538;2023-02-15T06:45:48;-1.70;99.90
15991;DHT22;8100;50.994;4.538;2023-02-15T06:48:37;-1.90;99.90
15991;DHT22;8100;50.994;4.538;2023-02-15T06:51:24;-1.70;99.90
15991;DHT22;8100;50.994;4.538;2023-02-15T06:54:11;-2.00;99.90
15991;DHT22;8100;50.994;4.538;2023-02-15T06:56:58;-2.00;99.90
15991;DHT22;8100;50.994;4.538;2023-02-15T06:59:46;-1.90;99.90
15991;DHT22;8100;50.994;4.538;2023-02-15T07:02:33;-1.80;99.90
15991;DHT22;8100;50.994;4.538;2023-02-15T07:05:22;-1.80;99.90
15991;DHT22;8100;50.994;4.538;2023-02-15T07:08:09;-2.00;99.90
15991;DHT22;8100;50.994;4.538;2023-02-15T07:10:56;-1.90;99.90
15991;DHT22;8100;50.994;4.538;2023-02-15T07:14:04;-1.70;99.90
15991;DHT22;8100;50.994;4.538;2023-02-15T07:16:50;-1.80;99.90
15991;DHT22;8100;50.994;4.538;2023-02-15T07:19:38;-1.70;99.90
15991;DHT22;8100;50.994;4.538;2023-02-15T07:22:27;-1.70;99.90
15991;DHT22;8100;50.994;4.538;2023-02-15T07:25:15;-1.30;99.90
15991;DHT22;8100;50.994;4.538;2023-02-15T07:28:03;-1.20;99.90
15991;DHT22;8100;50.994;4.538;2023-02-15T07:30:50;-1.10;99.90
15991;DHT22;8100;50.994;4.538;2023-02-15T07:33:38;-1.30;99.90
15991;DHT22;8100;50.994;4.538;2023-02-15T07:36:25;-1.10;99.90
15991;DHT22;8100;50.994;4.538;2023-02-15T07:39:14;-0.70;99.90
15991;DHT22;8100;50.994;4.538;2023-02-15T07:42:01;-1.00;99.90
15991;DHT22;8100;50.994;4.538;2023-02-15T07:44:48;-0.90;99.90
15991;DHT22;8100;50.994;4.538;2023-02-15T07:47:35;-0.70;99.90
15991;DHT22;8100;50.994;4.538;2023-02-15T07:50:23;-0.80;99.90
15991;DHT22;8100;50.994;4.538;2023-02-15T07:53:10;-0.70;99.90
15991;DHT22;8100;50.994;4.538;2023-02-15T07:55:59;-0.40;99.90
15991;DHT22;8100;50.994;4.538;2023-02-15T07:58:47;-0.40;99.90
15991;DHT22;8100;50.994;4.538;2023-02-15T08:01:41;-0.50;99.90
15991;DHT22;8100;50.994;4.538;2023-02-15T08:04:28;-0.30;99.90
15991;DHT22;8100;50.994;4.538;2023-02-15T08:07:17;0.10;99.90
15991;DHT22;8100;50.994;4.538;2023-02-15T08:10:05;0.10;99.90
15991;DHT22;8100;50.994;4.538;2023-02-15T08:13:02;0.30;99.90
15991;DHT22;8100;50.994;4.538;2023-02-15T08:15:59;0.10;99.90
15991;DHT22;8100;50.994;4.538;2023-02-15T08:18:48;0.60;99.90
15991;DHT22;8100;50.994;4.538;2023-02-15T08:21:36;0.60;99.90
15991;DHT22;8100;50.994;4.538;2023-02-15T08:24:25;1.00;99.90
15991;DHT22;8100;50.994;4.538;2023-02-15T08:27:13;0.80;99.90
15991;DHT22;8100;50.994;4.538;2023-02-15T08:30:02;1.20;99.90
15991;DHT22;8100;50.994;4.538;2023-02-15T08:32:50;1.20;99.90
15991;DHT22;8100;50.994;4.538;2023-02-15T08:35:37;1.20;99.90
15991;DHT22;8100;50.994;4.538;2023-02-15T08:38:24;1.20;99.90
15991;DHT22;8100;50.994;4.538;2023-02-15T08:41:13;1.70;99.90
15991;DHT22;8100;50.994;4.538;2023-02-15T08:44:04;1.50;99.90
15991;DHT22;8100;50.994;4.538;2023-02-15T08:46:53;1.80;99.90
15991;DHT22;8100;50.994;4.538;2023-02-15T08:49:43;1.80;99.90
15991;DHT22;8100;50.994;4.538;2023-02-15T08:52:30;2.40;99.90
15991;DHT22;8100;50.994;4.538;2023-02-15T08:55:17;2.30;99.90
15991;DHT22;8100;50.994;4.538;2023-02-15T08:58:05;2.70;99.90
15991;DHT22;8100;50.994;4.538;2023-02-15T09:00:52;2.60;99.90
15991;DHT22;8100;50.994;4.538;2023-02-15T09:03:40;3.30;99.90
15991;DHT22;8100;50.994;4.538;2023-02-15T09:06:28;3.40;99.90
15991;DHT22;8100;50.994;4.538;2023-02-15T09:09:16;3.60;99.90
15991;DHT22;8100;50.994;4.538;2023-02-15T09:12:04;3.40;99.90
15991;DHT22;8100;50.994;4.538;2023-02-15T09:14:51;3.50;99.90
15991;DHT22;8100;50.994;4.538;2023-02-15T09:17:38;3.60;99.90
15991;DHT22;8100;50.994;4.538;2023-02-15T09:20:27;3.80;99.90
15991;DHT22;8100;50.994;4.538;2023-02-15T09:23:14;4.20;99.90
15991;DHT22;8100;50.994;4.538;2023-02-15T09:26:04;4.00;99.90
15991;DHT22;8100;50.994;4.538;2023-02-15T09:28:53;4.30;99.90
15991;DHT22;8100;50.994;4.538;2023-02-15T09:31:43;4.50;99.90
15991;DHT22;8100;50.994;4.538;2023-02-15T09:34:30;4.60;99.90
15991;DHT22;8100;50.994;4.538;2023-02-15T09:37:19;4.60;99.90
15991;DHT22;8100;50.994;4.538;2023-02-15T09:40:07;4.80;99.90
15991;DHT22;8100;50.994;4.538;2023-02-15T09:43:09;4.80;99.90
15991;DHT22;8100;50.994;4.538;2023-02-15T09:46:12;4.90;99.90
15991;DHT22;8100;50.994;4.538;2023-02-15T09:49:06;5.10;99.90
15991;DHT22;8100;50.994;4.538;2023-02-15T09:58:45;5.40;99.90
15991;DHT22;8100;50.994;4.538;2023-02-15T10:01:39;5.70;99.90
15991;DHT22;8100;50.994;4.538;2023-02-15T10:04:42;5.90;99.90
15991;DHT22;8100;50.994;4.538;2023-02-15T10:07:46;6.00;99.90
15991;DHT22;8100;50.994;4.538;2023-02-15T10:10:45;6.20;99.90
15991;DHT22;8100;50.994;4.538;2023-02-15T10:13:40;6.40;99.90
15991;DHT22;8100;50.994;4.538;2023-02-15T10:16:34;6.50;99.90
15991;DHT22;8100;50.994;4.538;2023-02-15T10:19:32;6.50;99.90
15991;DHT22;8100;50.994;4.538;2023-02-15T10:22:29;6.70;99.90
15991;DHT22;8100;50.994;4.538;2023-02-15T10:25:31;6.80;99.90
15991;DHT22;8100;50.994;4.538;2023-02-15T10:28:26;6.90;99.90
15991;DHT22;8100;50.994;4.538;2023-02-15T10:31:23;7.20;99.90
15991;DHT22;8100;50.994;4.538;2023-02-15T10:34:15;7.30;99.90
15991;DHT22;8100;50.994;4.538;2023-02-15T10:37:37;7.60;99.90
15991;DHT22;8100;50.994;4.538;2023-02-15T10:40:33;8.00;26.60
15991;DHT22;8100;50.994;4.538;2023-02-15T10:43:40;8.30;23.70
15991;DHT22;8100;50.994;4.538;2023-02-15T10:46:43;8.60;9.00
15991;DHT22;8100;50.994;4.538;2023-02-15T10:49:46;8.90;1.00
15991;DHT22;8100;50.994;4.538;2023-02-15T10:52:44;9.00;1.00
15991;DHT22;8100;50.994;4.538;2023-02-15T10:55:46;9.20;1.00
15991;DHT22;8100;50.994;4.538;2023-02-15T10:58:49;9.40;1.00
15991;DHT22;8100;50.994;4.538;2023-02-15T11:01:41;9.60;1.00
15991;DHT22;8100;50.994;4.538;2023-02-15T11:04:40;9.70;99.90
15991;DHT22;8100;50.994;4.538;2023-02-15T11:07:34;9.70;99.90
15991;DHT22;8100;50.994;4.538;2023-02-15T11:10:29;9.70;99.90
15991;DHT22;8100;50.994;4.538;2023-02-15T11:13:19;9.60;99.90
15991;DHT22;8100;50.994;4.538;2023-02-15T11:16:11;9.60;1.00
15991;DHT22;8100;50.994;4.538;2023-02-15T11:19:05;9.60;1.00
15991;DHT22;8100;50.994;4.538;2023-02-15T11:21:57;9.60;99.90
15991;DHT22;8100;50.994;4.538;2023-02-15T11:24:46;9.70;1.00
15991;DHT22;8100;50.994;4.538;2023-02-15T11:27:34;9.80;1.00
15991;DHT22;8100;50.994;4.538;2023-02-15T11:30:23;10.00;1.00
15991;DHT22;8100;50.994;4.538;2023-02-15T11:33:18;10.00;1.00
15991;DHT22;8100;50.994;4.538;2023-02-15T11:36:11;10.00;1.00
15991;DHT22;8100;50.994;4.538;2023-02-15T11:39:03;10.10;99.90
15991;DHT22;8100;50.994;4.538;2023-02-15T11:41:59;10.20;1.00
15991;DHT22;8100;50.994;4.538;2023-02-15T11:44:55;10.30;1.00
15991;DHT22;8100;50.994;4.538;2023-02-15T11:47:43;10.40;1.00
15991;DHT22;8100;50.994;4.538;2023-02-15T11:50:32;10.50;1.00
15991;DHT22;8100;50.994;4.538;2023-02-15T11:53:21;10.60;1.00
15991;DHT22;8100;50.994;4.538;2023-02-15T11:56:14;10.70;1.00
15991;DHT22;8100;50.994;4.538;2023-02-15T11:59:05;10.90;1.00
15991;DHT22;8100;50.994;4.538;2023-02-15T12:01:55;11.00;1.00
15991;DHT22;8100;50.994;4.538;2023-02-15T12:04:47;11.10;1.00
15991;DHT22;8100;50.994;4.538;2023-02-15T12:07:40;11.00;1.00
15991;DHT22;8100;50.994;4.538;2023-02-15T12:10:31;11.10;1.00
15991;DHT22;8100;50.994;4.538;2023-02-15T12:13:21;11.10;99.90
15991;DHT22;8100;50.994;4.538;2023-02-15T12:16:12;11.10;1.00
15991;DHT22;8100;50.994;4.538;2023-02-15T12:19:00;11.20;1.00
15991;DHT22;8100;50.994;4.538;2023-02-15T12:21:51;11.20;1.00
15991;DHT22;8100;50.994;4.538;2023-02-15T12:24:45;11.20;1.00
15991;DHT22;8100;50.994;4.538;2023-02-15T12:27:34;11.30;1.00
15991;DHT22;8100;50.994;4.538;2023-02-15T12:30:28;11.30;1.00
15991;DHT22;8100;50.994;4.538;2023-02-15T12:33:25;11.20;1.00
15991;DHT22;8100;50.994;4.538;2023-02-15T12:36:18;11.10;1.00
15991;DHT22;8100;50.994;4.538;2023-02-15T12:39:18;11.10;1.00
15991;DHT22;8100;50.994;4.538;2023-02-15T12:42:16;10.90;1.00
15991;DHT22;8100;50.994;4.538;2023-02-15T12:45:22;11.00;1.00
15991;DHT22;8100;50.994;4.538;2023-02-15T12:48:14;11.10;1.00
15991;DHT22;8100;50.994;4.538;2023-02-15T12:51:07;11.20;1.00
15991;DHT22;8100;50.994;4.538;2023-02-15T12:53:55;11.50;1.00
15991;DHT22;8100;50.994;4.538;2023-02-15T12:56:42;11.50;1.00
15991;DHT22;8100;50.994;4.538;2023-02-15T12:59:31;11.60;1.00
15991;DHT22;8100;50.994;4.538;2023-02-15T13:02:26;11.80;1.00
15991;DHT22;8100;50.994;4.538;2023-02-15T13:05:19;12.00;1.00
15991;DHT22;8100;50.994;4.538;2023-02-15T13:08:11;12.00;1.00
15991;DHT22;8100;50.994;4.538;2023-02-15T13:11:02;12.10;1.00
15991;DHT22;8100;50.994;4.538;2023-02-15T13:13:53;12.30;1.00
15991;DHT22;8100;50.994;4.538;2023-02-15T13:16:44;12.20;1.00
15991;DHT22;8100;50.994;4.538;2023-02-15T13:19:34;12.10;1.00
15991;DHT22;8100;50.994;4.538;2023-02-15T13:22:26;12.20;1.00
15991;DHT22;8100;50.994;4.538;2023-02-15T13:25:18;12.20;1.00
15991;DHT22;8100;50.994;4.538;2023-02-15T13:28:12;12.20;1.00
15991;DHT22;8100;50.994;4.538;2023-02-15T13:31:01;12.20;1.00
15991;DHT22;8100;50.994;4.538;2023-02-15T13:33:52;12.20;1.00
15991;DHT22;8100;50.994;4.538;2023-02-15T13:36:45;12.20;1.00
15991;DHT22;8100;50.994;4.538;2023-02-15T13:39:39;12.20;1.00
15991;DHT22;8100;50.994;4.538;2023-02-15T13:42:31;12.30;1.00
15991;DHT22;8100;50.994;4.538;2023-02-15T13:45:38;12.40;1.00
15991;DHT22;8100;50.994;4.538;2023-02-15T13:48:32;12.50;1.00
15991;DHT22;8100;50.994;4.538;2023-02-15T13:51:30;12.40;1.00
15991;DHT22;8100;50.994;4.538;2023-02-15T13:54:36;12.40;1.00
15991;DHT22;8100;50.994;4.538;2023-02-15T13:57:44;12.30;1.00
15991;DHT22;8100;50.994;4.538;2023-02-15T14:00:38;12.50;1.00
15991;DHT22;8100;50.994;4.538;2023-02-15T14:03:46;12.40;1.00
15991;DHT22;8100;50.994;4.538;2023-02-15T14:07:00;12.40;1.00
15991;DHT22;8100;50.994;4.538;2023-02-15T14:09:59;12.50;1.00
15991;DHT22;8100;50.994;4.538;2023-02-15T14:13:02;12.50;1.00
15991;DHT22;8100;50.994;4.538;2023-02-15T14:15:55;12.60;1.00
15991;DHT22;8100;50.994;4.538;2023-02-15T14:18:48;12.60;1.00
15991;DHT22;8100;50.994;4.538;2023-02-15T14:21:43;12.70;1.00
15991;DHT22;8100;50.994;4.538;2023-02-15T14:24:39;12.70;1.00
15991;DHT22;8100;50.994;4.538;2023-02-15T14:27:42;12.70;1.00
15991;DHT22;8100;50.994;4.538;2023-02-15T14:30:34;12.80;1.00
15991;DHT22;8100;50.994;4.538;2023-02-15T14:33:31;12.70;1.00
15991;DHT22;8100;50.994;4.538;2023-02-15T14:36:20;12.60;1.00
15991;DHT22;8100;50.994;4.538;2023-02-15T14:39:18;12.50;1.00
15991;DHT22;8100;50.994;4.538;2023-02-15T14:42:36;12.60;1.00
15991;DHT22;8100;50.994;4.538;2023-02-15T14:45:29;12.60;1.00
15991;DHT22;8100;50.994;4.538;2023-02-15T14:48:22;12.50;1.00
15991;DHT22;8100;50.994;4.538;2023-02-15T14:54:56;12.40;1.00
15991;DHT22;8100;50.994;4.538;2023-02-15T14:57:55;12.40;1.00
15991;DHT22;8100;50.994;4.538;2023-02-15T15:00:44;12.40;1.00
15991;DHT22;8100;50.994;4.538;2023-02-15T15:03:31;12.50;1.00
15991;DHT22;8100;50.994;4.538;2023-02-15T15:06:24;12.50;1.00
15991;DHT22;8100;50.994;4.538;2023-02-15T15:09:18;12.60;1.00
15991;DHT22;8100;50.994;4.538;2023-02-15T15:15:33;12.80;1.00
15991;DHT22;8100;50.994;4.538;2023-02-15T15:21:56;12.60;1.00
15991;DHT22;8100;50.994;4.538;2023-02-15T15:24:50;12.50;1.00
15991;DHT22;8100;50.994;4.538;2023-02-15T15:27:51;12.40;1.00
15991;DHT22;8100;50.994;4.538;2023-02-15T15:31:03;12.40;1.00
15991;DHT22;8100;50.994;4.538;2023-02-15T15:37:57;12.60;1.00
15991;DHT22;8100;50.994;4.538;2023-02-15T15:41:16;12.80;1.00
15991;DHT22;8100;50.994;4.538;2023-02-15T15:44:40;12.70;1.00
15991;DHT22;8100;50.994;4.538;2023-02-15T15:47:51;12.70;1.00
15991;DHT22;8100;50.994;4.538;2023-02-15T15:50:41;12.70;1.00
15991;DHT22;8100;50.994;4.538;2023-02-15T15:53:31;12.50;1.00
15991;DHT22;8100;50.994;4.538;2023-02-15T15:56:22;12.20;1.00
15991;DHT22;8100;50.994;4.538;2023-02-15T15:59:14;12.10;1.00
15991;DHT22;8100;50.994;4.538;2023-02-15T16:02:04;11.90;1.00
15991;DHT22;8100;50.994;4.538;2023-02-15T16:04:54;11.90;1.00
15991;DHT22;8100;50.994;4.538;2023-02-15T16:07:41;11.80;1.00
15991;DHT22;8100;50.994;4.538;2023-02-15T16:10:30;11.70;1.00
15991;DHT22;8100;50.994;4.538;2023-02-15T16:13:20;11.50;1.00
15991;DHT22;8100;50.994;4.538;2023-02-15T16:16:07;11.30;1.00
15991;DHT22;8100;50.994;4.538;2023-02-15T16:18:55;11.20;1.00
15991;DHT22;8100;50.994;4.538;2023-02-15T16:21:48;11.10;1.00
15991;DHT22;8100;50.994;4.538;2023-02-15T16:24:57;11.10;1.00
15991;DHT22;8100;50.994;4.538;2023-02-15T16:27:50;10.90;1.00
15991;DHT22;8100;50.994;4.538;2023-02-15T16:30:38;10.80;1.00
15991;DHT22;8100;50.994;4.538;2023-02-15T16:33:35;10.70;1.00
15991;DHT22;8100;50.994;4.538;2023-02-15T16:36:25;10.60;1.00
15991;DHT22;8100;50.994;4.538;2023-02-15T16:39:22;10.60;1.00
15991;DHT22;8100;50.994;4.538;2023-02-15T16:42:11;10.50;1.00
15991;DHT22;8100;50.994;4.538;2023-02-15T16:45:04;10.50;1.00
15991;DHT22;8100;50.994;4.538;2023-02-15T16:47:55;10.30;1.00
15991;DHT22;8100;50.994;4.538;2023-02-15T16:50:48;10.30;1.00
15991;DHT22;8100;50.994;4.538;2023-02-15T16:53:36;10.30;1.00
15991;DHT22;8100;50.994;4.538;2023-02-15T16:56:27;10.20;1.00
15991;DHT22;8100;50.994;4.538;2023-02-15T16:59:23;10.00;1.00
15991;DHT22;8100;50.994;4.538;2023-02-15T17:02:17;10.00;1.00
15991;DHT22;8100;50.994;4.538;2023-02-15T17:05:15;9.90;1.00
15991;DHT22;8100;50.994;4.538;2023-02-15T17:08:14;9.90;1.00
15991;DHT22;8100;50.994;4.538;2023-02-15T17:11:14;9.70;1.00
15991;DHT22;8100;50.994;4.538;2023-02-15T17:14:21;9.50;1.00
15991;DHT22;8100;50.994;4.538;2023-02-15T17:17:14;9.20;1.00
15991;DHT22;8100;50.994;4.538;2023-02-15T17:20:02;9.00;1.00
15991;DHT22;8100;50.994;4.538;2023-02-15T17:22:49;8.90;1.00
15991;DHT22;8100;50.994;4.538;2023-02-15T17:25:38;8.70;1.00
15991;DHT22;8100;50.994;4.538;2023-02-15T17:28:29;8.50;1.00
15991;DHT22;8100;50.994;4.538;2023-02-15T17:31:19;8.40;1.00
15991;DHT22;8100;50.994;4.538;2023-02-15T17:34:45;8.40;1.00
15991;DHT22;8100;50.994;4.538;2023-02-15T17:37:43;8.60;1.00
15991;DHT22;8100;50.994;4.538;2023-02-15T17:40:33;8.70;1.00
15991;DHT22;8100;50.994;4.538;2023-02-15T17:43:21;8.60;1.00
15991;DHT22;8100;50.994;4.538;2023-02-15T17:46:09;8.60;1.00
15991;DHT22;8100;50.994;4.538;2023-02-15T17:48:58;8.70;1.00
15991;DHT22;8100;50.994;4.538;2023-02-15T17:51:45;8.70;1.00
15991;DHT22;8100;50.994;4.538;2023-02-15T17:54:32;8.40;1.00
15991;DHT22;8100;50.994;4.538;2023-02-15T17:57:37;8.40;1.00
15991;DHT22;8100;50.994;4.538;2023-02-15T18:00:24;8.20;1.00
15991;DHT22;8100;50.994;4.538;2023-02-15T18:03:38;8.10;1.00
15991;DHT22;8100;50.994;4.538;2023-02-15T18:06:45;7.90;1.00
15991;DHT22;8100;50.994;4.538;2023-02-15T18:09:49;7.80;76.90
15991;DHT22;8100;50.994;4.538;2023-02-15T18:12:54;7.80;94.40
15991;DHT22;8100;50.994;4.538;2023-02-15T18:15:41;7.70;99.90
15991;DHT22;8100;50.994;4.538;2023-02-15T18:18:29;7.60;99.90
15991;DHT22;8100;50.994;4.538;2023-02-15T18:21:16;7.50;99.90
15991;DHT22;8100;50.994;4.538;2023-02-15T18:24:05;7.50;99.90
15991;DHT22;8100;50.994;4.538;2023-02-15T18:26:53;7.50;99.90
15991;DHT22;8100;50.994;4.538;2023-02-15T18:29:41;7.70;99.90
15991;DHT22;8100;50.994;4.538;2023-02-15T18:32:32;7.60;99.90
15991;DHT22;8100;50.994;4.538;2023-02-15T18:35:22;7.60;99.90
15991;DHT22;8100;50.994;4.538;2023-02-15T18:38:10;7.50;99.90
15991;DHT22;8100;50.994;4.538;2023-02-15T18:41:00;7.70;99.90
15991;DHT22;8100;50.994;4.538;2023-02-15T18:43:49;7.80;99.90
15991;DHT22;8100;50.994;4.538;2023-02-15T18:46:37;7.90;99.90
15991;DHT22;8100;50.994;4.538;2023-02-15T18:49:24;8.10;1.00
15991;DHT22;8100;50.994;4.538;2023-02-15T18:52:14;8.20;1.00
15991;DHT22;8100;50.994;4.538;2023-02-15T18:55:04;8.30;1.00
15991;DHT22;8100;50.994;4.538;2023-02-15T18:58:00;8.40;1.00
15991;DHT22;8100;50.994;4.538;2023-02-15T19:00:48;8.40;1.00
15991;DHT22;8100;50.994;4.538;2023-02-15T19:03:36;8.40;1.00
15991;DHT22;8100;50.994;4.538;2023-02-15T19:06:23;8.40;1.00